createdAt,value
2023-03-23T16:00:24.588Z,20.58
2023-03-23T16:03:51.514Z,26.83
2023-03-23T16:06:57.497Z,41.63
2023-03-23T16:10:01.003Z,32.28
2023-03-23T16:13:06.370Z,33.57
2023-03-23T16:16:28.949Z,37.15
2023-03-23T16:19:32.419Z,45.80
2023-03-23T16:22:35.827Z,34.47
2023-03-23T16:25:41.865Z,34.40
2023-03-23T16:28:45.970Z,38.03
2023-03-23T16:31:49.385Z,40.13
2023-03-23T16:34:52.584Z,33.88
2023-03-23T16:38:07.750Z,33.05
2023-03-23T16:41:11.810Z,20.48
2023-03-23T16:44:14.985Z,15.48
2023-03-23T16:47:19.621Z,20.95
2023-03-23T16:50:23.009Z,17.35
2023-03-23T16:53:26.328Z,13.98
2023-03-23T16:56:29.670Z,17.58
2023-03-23T16:59:32.843Z,22.85
2023-03-23T17:02:37.490Z,20.52
2023-03-23T17:05:40.967Z,15.27
2023-03-23T17:08:44.274Z,13.93
2023-03-23T17:11:47.424Z,16.85
2023-03-23T17:14:50.795Z,29.23
2023-03-23T17:17:55.643Z,14.85
2023-03-23T17:20:58.810Z,31.40
2023-03-23T17:24:01.939Z,16.23
2023-03-23T17:27:05.157Z,21.80
2023-03-23T17:30:10.812Z,20.42
2023-03-23T17:33:14.760Z,25.50
2023-03-23T17:36:17.998Z,26.08
2023-03-23T17:39:21.498Z,23.13
2023-03-23T17:42:25.036Z,16.30
2023-03-23T17:45:28.282Z,21.20
2023-03-23T17:48:31.640Z,20.92
2023-03-23T17:51:34.851Z,32.15
2023-03-23T17:54:38.148Z,16.40
2023-03-23T17:57:43.334Z,23.48
2023-03-23T18:00:47.442Z,28.20
2023-03-23T18:03:50.653Z,29.87
2023-03-23T18:06:58.840Z,21.15
2023-03-23T18:10:02.397Z,13.45
2023-03-23T18:13:07.417Z,20.45
2023-03-23T18:16:11.429Z,13.93
2023-03-23T18:19:14.612Z,17.50
2023-03-23T18:22:17.853Z,12.90
2023-03-23T18:25:21.349Z,17.77
2023-03-23T18:28:26.077Z,19.85
2023-03-23T18:31:29.705Z,22.58
2023-03-23T18:34:32.930Z,17.98
2023-03-23T18:37:36.616Z,24.67
2023-03-23T18:40:47.260Z,21.25
2023-03-23T18:43:50.442Z,18.02
2023-03-23T18:46:53.592Z,24.77
2023-03-23T18:49:57.271Z,16.15
2023-03-23T18:53:00.661Z,11.77
2023-03-23T18:56:16.687Z,32.37
2023-03-23T18:59:19.942Z,13.43
2023-03-23T19:02:23.160Z,16.77
2023-03-23T19:05:26.716Z,18.42
2023-03-23T19:08:30.761Z,30.27
2023-03-23T19:11:33.986Z,35.78
2023-03-23T19:14:38.185Z,44.55
2023-03-23T19:17:41.903Z,10.50
2023-03-23T19:21:12.482Z,17.70
2023-03-23T19:24:09.995Z,29.90
2023-03-23T19:27:13.620Z,40.13
2023-03-23T19:30:16.935Z,22.15
2023-03-23T19:33:20.288Z,15.40
2023-03-23T19:36:24.661Z,14.73
2023-03-23T19:39:27.987Z,22.13
2023-03-23T19:42:31.459Z,30.17
2023-03-23T19:45:34.747Z,20.83
2023-03-23T19:48:39.718Z,11.77
2023-03-23T19:51:43.331Z,8.57
2023-03-23T19:54:46.596Z,27.45
2023-03-23T19:57:51.277Z,8.33
2023-03-23T20:00:54.577Z,13.07
2023-03-23T20:04:02.187Z,8.57
2023-03-23T20:07:07.752Z,10.18
2023-03-23T20:10:11.532Z,11.15
2023-03-23T20:13:14.719Z,7.07
2023-03-23T20:16:19.120Z,8.95
2023-03-23T20:19:22.784Z,10.43
2023-03-23T20:22:26.440Z,7.30
2023-03-23T20:25:30.089Z,4.70
2023-03-23T20:28:33.829Z,7.70
2023-03-23T20:31:39.769Z,4.93
2023-03-23T20:34:44.680Z,6.15
2023-03-23T20:37:53.360Z,9.65
2023-03-23T20:40:57.661Z,10.15
2023-03-23T20:47:03.903Z,7.47
2023-03-23T20:50:09.401Z,9.25
2023-03-23T20:53:12.550Z,8.43
2023-03-23T20:56:16.042Z,7.10
2023-03-23T20:59:20.878Z,5.82
2023-03-23T21:02:26.480Z,14.13
2023-03-23T21:05:30.215Z,14.98
2023-03-23T21:08:34.934Z,11.25
2023-03-23T21:11:38.488Z,19.77
2023-03-23T21:14:42.105Z,32.00
2023-03-23T21:17:45.325Z,20.98
2023-03-23T21:20:48.563Z,23.40
2023-03-23T21:23:53.317Z,26.97
2023-03-23T21:27:01.754Z,26.73
2023-03-23T21:30:06.402Z,29.40
2023-03-23T21:33:10.076Z,25.55
2023-03-23T21:36:13.589Z,20.98
2023-03-23T21:39:17.295Z,14.75
2023-03-23T21:42:21.629Z,16.50
2023-03-23T21:45:26.275Z,11.27
2023-03-23T21:48:30.447Z,18.77
2023-03-23T21:51:35.056Z,13.57
2023-03-23T21:54:38.403Z,37.10
2023-03-23T21:57:42.990Z,22.00
2023-03-23T22:00:47.884Z,25.67
2023-03-23T22:03:51.737Z,30.58
2023-03-23T22:06:54.993Z,20.30
2023-03-23T22:09:58.230Z,22.70
2023-03-23T22:13:01.476Z,14.70
2023-03-23T22:16:07.753Z,16.83
2023-03-23T22:19:11.073Z,21.15
2023-03-23T22:22:14.342Z,45.75
2023-03-23T22:25:17.941Z,26.13
2023-03-23T22:28:21.254Z,31.48
2023-03-23T22:31:28.225Z,23.65
2023-03-23T22:34:33.184Z,29.67
2023-03-23T22:37:36.646Z,36.97
2023-03-23T22:40:40.032Z,33.33
2023-03-23T22:43:43.249Z,28.80
2023-03-23T22:46:46.710Z,41.27
2023-03-23T22:49:49.881Z,35.78
2023-03-23T22:52:53.176Z,46.63
2023-03-23T22:55:58.616Z,57.15
2023-03-23T22:59:02.647Z,32.00
2023-03-23T23:02:06.010Z,54.80
2023-03-23T23:05:10.865Z,66.80
2023-03-23T23:08:16.579Z,56.92
2023-03-23T23:11:22.634Z,82.80
2023-03-23T23:14:25.949Z,71.65
2023-03-23T23:17:32.495Z,76.88
2023-03-23T23:20:36.225Z,109.53
2023-03-23T23:23:39.881Z,152.63
2023-03-23T23:26:45.223Z,208.48
2023-03-23T23:29:48.630Z,179.93
2023-03-23T23:32:53.088Z,177.43
2023-03-23T23:35:56.962Z,170.23
2023-03-23T23:39:01.829Z,154.07
2023-03-23T23:45:11.028Z,160.93
2023-03-23T23:48:14.263Z,157.75
2023-03-23T23:51:18.173Z,142.02
2023-03-23T23:54:23.620Z,135.57
2023-03-23T23:57:26.975Z,135.23
